Tickfaw, Louisiana
Current Conditions -  °F | °C
As of 3:35 AM on Friday 28 Nov 2014 (Local Time) from KHDC Reporting Station
Clear Clear  
Wind Chill: 37°   Ceiling: Unl
Heat Index: 37°   Visibility: 10mi
Dew Point: 32°   Wind: 0mph
Humidity: 81%   Direction: NA
Pressure: 30.45"   Gusts: NA
Location:  30.58°N, 90.48°W
Report Text: KHDC 280935Z AUTO 00000KT 10SM CLR 03/M00 A3045 RMK AO2
Loading
Personal Weather Stations






























Interactive Weather Map New forecast layout! Learn more

10-Day Weather Forecast

Advertisements
Track Severe Weather on mobile